Piney, Arkansas
Current Conditions -  °F | °C
As of 10:53 AM on Thursday 30 Oct 2014 (Local Time) from KHOT Reporting Station
Clear Clear  
Wind Chill: 60°   Ceiling: Unl
Heat Index: 60°   Visibility: 10mi
Dew Point: 50°   Wind: 0mph
Humidity: 69%   Direction: NA
Pressure: 30.17"   Gusts: NA
Location:  34.5331°N, 93.0035°W
Report Text: KHOT 301553Z AUTO 00000KT 10SM CLR 16/10 A3017 RMK AO2 SLP214 T01560100
Loading
Personal Weather Stations






























Interactive Weather Map
Tropical Storm Tracking
New forecast layout! Learn more

10-Day Weather Forecast

Advertisements
Track Severe Weather on mobile